Acmar, Alabama
Current Conditions -  °F | °C
As of 11:53 PM on Saturday 22 Nov 2014 (Local Time) from KBHM Reporting Station
Light Rain Light Rain  
Wind Chill: 14°   Ceiling: 2000
Heat Index: 14°   Visibility: 8mi
Dew Point: 11°   Wind: 9mph
Humidity: 81%   Direction: 120°ESE
Pressure: 30.08"   Gusts: NA
Location:  33.6013°N, 86.5003°W
Report Text: KBHM 230553Z 12008KT 8SM -RA OVC020 14/11 A3008 RMK AO2 RAB44 SLP183 P0000 60000 T01390106 10172 20139 402000056 58022
Loading
Personal Weather Stations






























Interactive Weather Map New forecast layout! Learn more

10-Day Weather Forecast

Advertisements
Track Severe Weather on mobile